Time;durP1;ratioP1;P1;durP2;ratioP2;P2;SDS_P1;SDS_P2;PMS_P1;PMS_P2;Temp;Humidity;BMP_temperature;BMP_pressure;BME280_temperature;BME280_humidity;BME280_pressure;Samples;Min_cycle;Max_cycle;Signal;HPM_P1;HPM_P2
2022/11/20 00:01:34;;;;;;;17.45;15.65;;;;;;;;;;5053402;28;20597;-74
2022/11/20 00:04:02;;;;;;;17.25;15.55;;;;;;;;;;5042444;28;20209;-74
2022/11/20 00:06:30;;;;;;;15.85;14.35;;;;;;;;;;5037960;28;20898;-74
2022/11/20 00:08:58;;;;;;;15.77;14.27;;;;;;;;;;5038545;28;20300;-73
2022/11/20 00:11:27;;;;;;;15.98;14.45;;;;;;;;;;5038027;28;20205;-73
2022/11/20 00:13:58;;;;;;;15.38;13.88;;;;;;;;;;5044186;28;20212;-74
2022/11/20 00:16:26;;;;;;;14.90;13.40;;;;;;;;;;5056136;28;20245;-74
2022/11/20 00:18:54;;;;;;;15.05;13.55;;;;;;;;;;5037639;28;20289;-74
2022/11/20 00:21:23;;;;;;;14.68;13.23;;;;;;;;;;5046045;28;20213;-74
2022/11/20 00:23:50;;;;;;;14.25;12.85;;;;;;;;;;5038393;28;20464;-74
2022/11/20 00:26:19;;;;;;;13.73;12.43;;;;;;;;;;5057287;28;20256;-74
2022/11/20 00:28:51;;;;;;;13.80;12.50;;;;;;;;;;5057807;28;20207;-74
2022/11/20 00:31:20;;;;;;;12.90;11.68;;;;;;;;;;5045826;28;20293;-74
2022/11/20 00:33:48;;;;;;;12.68;11.48;;;;;;;;;;5046420;28;20193;-73
2022/11/20 00:36:16;;;;;;;13.43;12.13;;;;;;;;;;5042048;28;20193;-74
2022/11/20 00:38:44;;;;;;;11.85;10.75;;;;;;;;;;5043611;28;20212;-74
2022/11/20 00:41:12;;;;;;;11.80;10.60;;;;;;;;;;5037726;28;20262;-73
2022/11/20 00:43:40;;;;;;;11.65;10.55;;;;;;;;;;5052206;28;20520;-74
2022/11/20 00:46:09;;;;;;;11.40;10.38;;;;;;;;;;5039617;28;20327;-74
2022/11/20 00:48:38;;;;;;;10.57;9.68;;;;;;;;;;5037519;28;20205;-74
2022/11/20 00:51:07;;;;;;;11.23;10.18;;;;;;;;;;5038412;28;20658;-74
2022/11/20 00:53:35;;;;;;;10.85;9.75;;;;;;;;;;5057333;28;20215;-73
2022/11/20 00:56:03;;;;;;;10.45;9.45;;;;;;;;;;5054284;28;20284;-74
2022/11/20 00:58:32;;;;;;;10.88;9.88;;;;;;;;;;5044673;28;20610;-74
2022/11/20 01:01:03;;;;;;;10.15;9.15;;;;;;;;;;5049987;28;20249;-74
2022/11/20 01:03:32;;;;;;;9.93;9.02;;;;;;;;;;5039003;28;20209;-74
2022/11/20 01:06:03;;;;;;;9.57;8.77;;;;;;;;;;5051204;28;20235;-73
2022/11/20 01:08:32;;;;;;;9.73;8.82;;;;;;;;;;5052414;28;20198;-74
2022/11/20 01:11:03;;;;;;;9.73;8.82;;;;;;;;;;5037842;28;20227;-73
2022/11/20 01:13:38;;;;;;;9.13;8.32;;;;;;;;;;5052875;28;20201;-74
2022/11/20 01:16:06;;;;;;;9.90;9.00;;;;;;;;;;5044503;28;20661;-73
2022/11/20 01:18:34;;;;;;;9.32;8.52;;;;;;;;;;5050553;28;20608;-73
2022/11/20 01:21:07;;;;;;;9.05;8.25;;;;;;;;;;5037049;28;20206;-73
2022/11/20 01:23:35;;;;;;;9.30;8.40;;;;;;;;;;5055710;28;20201;-74
2022/11/20 01:26:03;;;;;;;9.07;8.27;;;;;;;;;;5043523;28;20221;-73
2022/11/20 01:28:31;;;;;;;8.90;8.10;;;;;;;;;;5056969;28;20208;-73
2022/11/20 01:30:59;;;;;;;8.75;8.00;;;;;;;;;;5053186;28;20651;-74
2022/11/20 01:33:27;;;;;;;8.88;8.07;;;;;;;;;;5052836;28;20291;-74
2022/11/20 01:35:55;;;;;;;8.95;8.15;;;;;;;;;;5043642;28;20299;-74
2022/11/20 01:38:24;;;;;;;8.18;7.47;;;;;;;;;;5048700;28;20205;-74
2022/11/20 01:40:58;;;;;;;8.43;7.72;;;;;;;;;;5045517;28;20288;-74
2022/11/20 01:43:25;;;;;;;8.75;7.95;;;;;;;;;;5043774;28;20308;-74
2022/11/20 01:46:01;;;;;;;8.45;7.75;;;;;;;;;;5052417;28;20230;-74
2022/11/20 01:48:32;;;;;;;8.73;7.93;;;;;;;;;;5043305;28;20304;-73
2022/11/20 01:51:00;;;;;;;8.23;7.53;;;;;;;;;;5054773;28;20205;-74
2022/11/20 01:53:31;;;;;;;8.30;7.60;;;;;;;;;;5051334;28;20547;-74
2022/11/20 01:56:00;;;;;;;8.88;8.07;;;;;;;;;;5042665;28;20216;-74
2022/11/20 01:58:30;;;;;;;7.85;7.15;;;;;;;;;;5043254;28;20649;-73
2022/11/20 02:00:58;;;;;;;8.20;7.50;;;;;;;;;;5047820;28;20232;-74
2022/11/20 02:03:26;;;;;;;8.50;7.80;;;;;;;;;;5045002;28;20599;-74
2022/11/20 02:05:57;;;;;;;7.50;6.90;;;;;;;;;;5046358;28;20280;-73
2022/11/20 02:08:25;;;;;;;7.78;7.07;;;;;;;;;;5045841;28;20284;-73
2022/11/20 02:10:56;;;;;;;8.40;7.70;;;;;;;;;;5048022;28;20560;-75
2022/11/20 02:16:10;;;;;;;7.55;6.95;;;;;;;;;;5062983;28;20299;-74
2022/11/20 02:18:39;;;;;;;8.18;7.47;;;;;;;;;;5063060;28;20240;-73
2022/11/20 02:21:08;;;;;;;7.90;7.20;;;;;;;;;;5060293;28;20483;-74
2022/11/20 02:23:40;;;;;;;8.07;7.38;;;;;;;;;;5060490;28;20205;-74
2022/11/20 02:26:11;;;;;;;7.82;7.13;;;;;;;;;;5045201;28;20221;-74
2022/11/20 02:28:39;;;;;;;8.07;7.38;;;;;;;;;;5047777;28;20567;-74
2022/11/20 02:31:07;;;;;;;7.35;6.75;;;;;;;;;;5060498;28;20609;-74
2022/11/20 02:33:35;;;;;;;7.50;6.90;;;;;;;;;;5060158;28;20307;-73
2022/11/20 02:36:03;;;;;;;7.68;6.97;;;;;;;;;;5043064;28;20197;-74
2022/11/20 02:38:30;;;;;;;7.97;7.28;;;;;;;;;;5055291;28;20201;-73
2022/11/20 02:40:58;;;;;;;7.53;6.90;;;;;;;;;;5057605;28;20201;-74
2022/11/20 02:43:27;;;;;;;7.45;6.80;;;;;;;;;;5043967;28;20213;-74
2022/11/20 02:45:55;;;;;;;7.78;7.07;;;;;;;;;;5039424;28;20201;-74
2022/11/20 02:48:23;;;;;;;7.93;7.22;;;;;;;;;;5042117;28;20250;-74
2022/11/20 02:50:50;;;;;;;8.25;7.55;;;;;;;;;;5050866;28;20296;-74
2022/11/20 02:53:18;;;;;;;7.55;6.88;;;;;;;;;;5053233;28;20201;-73
2022/11/20 02:55:46;;;;;;;7.13;6.53;;;;;;;;;;5059063;28;20236;-73
2022/11/20 02:58:14;;;;;;;7.43;6.82;;;;;;;;;;5058857;28;20551;-73
2022/11/20 03:00:43;;;;;;;7.43;6.78;;;;;;;;;;5043746;28;20256;-74
2022/11/20 03:03:11;;;;;;;7.13;6.53;;;;;;;;;;5052201;28;20202;-73
2022/11/20 03:05:38;;;;;;;7.45;6.85;;;;;;;;;;5058684;28;20213;-73
2022/11/20 03:08:06;;;;;;;7.28;6.68;;;;;;;;;;5058664;28;20243;-74
2022/11/20 03:10:33;;;;;;;7.32;6.72;;;;;;;;;;5048250;28;20201;-74
2022/11/20 03:13:01;;;;;;;7.30;6.70;;;;;;;;;;5039693;28;20217;-73
2022/11/20 03:15:29;;;;;;;7.32;6.63;;;;;;;;;;5039186;28;20301;-74
2022/11/20 03:17:59;;;;;;;7.32;6.72;;;;;;;;;;5052214;28;20586;-74
2022/11/20 03:20:26;;;;;;;7.55;6.85;;;;;;;;;;5052270;28;20608;-73
2022/11/20 03:22:55;;;;;;;7.80;7.10;;;;;;;;;;5039235;28;20501;-74
2022/11/20 03:25:23;;;;;;;7.90;7.20;;;;;;;;;;5046241;28;20206;-74
2022/11/20 03:27:50;;;;;;;7.47;6.88;;;;;;;;;;5054089;28;20323;-74
2022/11/20 03:30:18;;;;;;;7.93;7.22;;;;;;;;;;5051015;28;20538;-74
2022/11/20 03:32:46;;;;;;;7.05;6.47;;;;;;;;;;5059184;28;20236;-73
2022/11/20 03:35:15;;;;;;;6.97;6.38;;;;;;;;;;5051881;28;20201;-74
2022/11/20 03:37:43;;;;;;;7.25;6.65;;;;;;;;;;5052578;28;20248;-73
2022/11/20 03:40:11;;;;;;;7.15;6.55;;;;;;;;;;5050900;28;20282;-74
2022/11/20 03:42:48;;;;;;;6.90;6.40;;;;;;;;;;5039536;28;20205;-73
2022/11/20 03:45:16;;;;;;;7.28;6.68;;;;;;;;;;5049812;28;20212;-74
2022/11/20 03:47:44;;;;;;;7.28;6.68;;;;;;;;;;5047490;28;20229;-73
2022/11/20 03:50:13;;;;;;;7.18;6.57;;;;;;;;;;5040532;28;20213;-73
2022/11/20 03:52:42;;;;;;;6.82;6.22;;;;;;;;;;5042756;28;20241;-73
2022/11/20 03:55:10;;;;;;;7.15;6.55;;;;;;;;;;5052559;28;20201;-74
2022/11/20 03:57:38;;;;;;;7.47;6.88;;;;;;;;;;5057703;28;20295;-73
2022/11/20 04:00:06;;;;;;;6.65;6.07;;;;;;;;;;5047504;28;20262;-75
2022/11/20 04:02:34;;;;;;;6.97;6.38;;;;;;;;;;5040769;28;20198;-74
2022/11/20 04:05:01;;;;;;;6.95;6.38;;;;;;;;;;5038584;28;20477;-75
2022/11/20 04:07:29;;;;;;;6.43;5.85;;;;;;;;;;5047458;28;20299;-74
2022/11/20 04:09:58;;;;;;;6.60;6.10;;;;;;;;;;5050579;28;20208;-74
2022/11/20 04:12:26;;;;;;;6.70;6.10;;;;;;;;;;5038203;28;20212;-74
2022/11/20 04:14:53;;;;;;;6.65;6.05;;;;;;;;;;5050214;28;20201;-73
2022/11/20 04:17:21;;;;;;;6.93;6.32;;;;;;;;;;5056174;28;20232;-73
2022/11/20 04:19:49;;;;;;;7.00;6.40;;;;;;;;;;5049696;28;20193;-74
2022/11/20 04:22:16;;;;;;;6.93;6.32;;;;;;;;;;5057380;28;20209;-73
2022/11/20 04:24:44;;;;;;;6.82;6.22;;;;;;;;;;5039363;28;20198;-74
2022/11/20 04:27:13;;;;;;;6.57;6.05;;;;;;;;;;5047538;28;20324;-73
2022/11/20 04:29:41;;;;;;;6.32;5.82;;;;;;;;;;5046517;28;20233;-73
2022/11/20 04:32:09;;;;;;;6.55;6.05;;;;;;;;;;5039798;28;20507;-73
2022/11/20 04:34:36;;;;;;;6.47;5.95;;;;;;;;;;5048391;28;20201;-74
2022/11/20 04:37:04;;;;;;;6.60;6.00;;;;;;;;;;5048072;28;20209;-73
2022/11/20 04:39:32;;;;;;;6.22;5.72;;;;;;;;;;5047872;28;20209;-73
2022/11/20 04:44:42;;;;;;;5.85;5.35;;;;;;;;;;5055850;28;20581;-74
2022/11/20 04:47:10;;;;;;;6.05;5.55;;;;;;;;;;5057759;28;20228;-73
2022/11/20 04:49:37;;;;;;;5.85;5.35;;;;;;;;;;5046463;28;20208;-73
2022/11/20 04:52:05;;;;;;;5.88;5.38;;;;;;;;;;5051985;28;20205;-74
2022/11/20 04:54:33;;;;;;;6.25;5.75;;;;;;;;;;5048939;28;20224;-73
2022/11/20 04:57:00;;;;;;;5.68;5.18;;;;;;;;;;5046684;28;20229;-74
2022/11/20 04:59:28;;;;;;;5.80;5.30;;;;;;;;;;5057375;28;20322;-74
2022/11/20 05:01:57;;;;;;;5.88;5.30;;;;;;;;;;5041104;28;20270;-74
2022/11/20 05:04:24;;;;;;;5.60;5.10;;;;;;;;;;5037780;28;20206;-74
2022/11/20 05:06:52;;;;;;;5.65;5.20;;;;;;;;;;5038398;28;20304;-74
2022/11/20 05:09:19;;;;;;;5.80;5.30;;;;;;;;;;5039742;28;20202;-73
2022/11/20 05:11:46;;;;;;;5.78;5.28;;;;;;;;;;5046335;28;20597;-73
2022/11/20 05:14:14;;;;;;;5.97;5.47;;;;;;;;;;5044927;28;20501;-74
2022/11/20 05:16:41;;;;;;;5.38;4.97;;;;;;;;;;5055744;28;20227;-73
2022/11/20 05:19:10;;;;;;;5.78;5.28;;;;;;;;;;5046533;28;20211;-74
2022/11/20 05:21:38;;;;;;;5.93;5.43;;;;;;;;;;5039077;28;20209;-74
2022/11/20 05:24:05;;;;;;;5.95;5.45;;;;;;;;;;5043418;28;20211;-74
2022/11/20 05:26:33;;;;;;;5.47;5.05;;;;;;;;;;5055035;28;20217;-73
2022/11/20 05:29:00;;;;;;;5.20;4.80;;;;;;;;;;5048247;28;20204;-73
2022/11/20 05:31:27;;;;;;;5.53;5.03;;;;;;;;;;5048084;28;20288;-73
2022/11/20 05:33:55;;;;;;;5.57;5.10;;;;;;;;;;5039496;28;20198;-73
2022/11/20 05:36:24;;;;;;;5.10;4.60;;;;;;;;;;5047825;28;20489;-73
2022/11/20 05:38:52;;;;;;;5.18;4.78;;;;;;;;;;5039634;28;20205;-73
2022/11/20 05:41:20;;;;;;;4.95;4.55;;;;;;;;;;5041213;28;20203;-74
2022/11/20 05:43:48;;;;;;;5.05;4.65;;;;;;;;;;5040438;28;20198;-74
2022/11/20 05:46:16;;;;;;;5.55;5.05;;;;;;;;;;5047646;28;20229;-73
2022/11/20 05:48:44;;;;;;;5.07;4.68;;;;;;;;;;5047209;28;20221;-74
2022/11/20 05:51:12;;;;;;;4.90;4.50;;;;;;;;;;5043799;28;20231;-74
2022/11/20 05:53:41;;;;;;;4.78;4.38;;;;;;;;;;5043591;28;20197;-74
2022/11/20 05:56:10;;;;;;;5.13;4.72;;;;;;;;;;5047788;28;20201;-73
2022/11/20 05:58:38;;;;;;;4.88;4.47;;;;;;;;;;5039032;28;20645;-73
2022/11/20 06:01:07;;;;;;;4.60;4.20;;;;;;;;;;5020758;28;20198;-73
2022/11/20 06:03:34;;;;;;;5.22;4.82;;;;;;;;;;5021154;28;20203;-74
2022/11/20 06:06:01;;;;;;;4.90;4.50;;;;;;;;;;5021113;28;20202;-74
2022/11/20 06:08:29;;;;;;;4.40;4.00;;;;;;;;;;5025017;28;20213;-74
2022/11/20 06:10:58;;;;;;;5.20;4.80;;;;;;;;;;5021733;28;20191;-73
2022/11/20 06:13:25;;;;;;;4.97;4.57;;;;;;;;;;5024539;28;20212;-73
2022/11/20 06:15:53;;;;;;;4.80;4.40;;;;;;;;;;5029015;28;20591;-73
2022/11/20 06:18:20;;;;;;;4.70;4.30;;;;;;;;;;5031414;28;20198;-73
2022/11/20 06:20:48;;;;;;;4.65;4.25;;;;;;;;;;5031018;28;20292;-74
2022/11/20 06:23:15;;;;;;;5.05;4.60;;;;;;;;;;5035277;28;20208;-74
2022/11/20 06:25:43;;;;;;;4.63;4.22;;;;;;;;;;5024258;28;20206;-74
2022/11/20 06:28:14;;;;;;;4.57;4.10;;;;;;;;;;5024610;28;20623;-74
2022/11/20 06:30:46;;;;;;;5.18;4.30;;;;;;;;;;5033257;28;20223;-73
2022/11/20 06:33:15;;;;;;;4.45;4.05;;;;;;;;;;5039259;28;20213;-73
2022/11/20 06:35:42;;;;;;;4.60;4.05;;;;;;;;;;5039446;28;20210;-73
2022/11/20 06:38:10;;;;;;;4.57;4.18;;;;;;;;;;5040444;28;20241;-74
2022/11/20 06:40:37;;;;;;;4.60;4.20;;;;;;;;;;5034002;28;20201;-73
2022/11/20 06:43:05;;;;;;;4.60;4.20;;;;;;;;;;5028509;28;20203;-73
2022/11/20 06:45:33;;;;;;;4.47;4.07;;;;;;;;;;5027928;28;20583;-73
2022/11/20 06:48:01;;;;;;;4.85;4.45;;;;;;;;;;5032034;28;20651;-74
2022/11/20 06:50:28;;;;;;;4.65;4.25;;;;;;;;;;5030140;28;20202;-74
2022/11/20 06:52:55;;;;;;;4.60;4.20;;;;;;;;;;5028973;28;20211;-74
2022/11/20 06:55:23;;;;;;;4.13;3.78;;;;;;;;;;5021477;28;20213;-73
2022/11/20 06:57:52;;;;;;;4.28;3.95;;;;;;;;;;5039587;28;20468;-74
2022/11/20 07:00:19;;;;;;;4.55;4.15;;;;;;;;;;5040836;28;20639;-73
2022/11/20 07:02:48;;;;;;;4.10;3.80;;;;;;;;;;5050421;28;20293;-74
2022/11/20 07:05:15;;;;;;;3.92;3.63;;;;;;;;;;5039287;28;20206;-74
2022/11/20 07:07:43;;;;;;;4.68;4.28;;;;;;;;;;5051025;28;20232;-73
2022/11/20 07:10:11;;;;;;;4.47;4.07;;;;;;;;;;5045671;28;20197;-73
2022/11/20 07:12:38;;;;;;;4.45;4.05;;;;;;;;;;5049697;28;20203;-73
2022/11/20 07:15:06;;;;;;;3.97;3.67;;;;;;;;;;5057023;28;20224;-74
2022/11/20 07:17:33;;;;;;;4.70;4.30;;;;;;;;;;5040899;28;20198;-73
2022/11/20 07:20:02;;;;;;;4.13;3.72;;;;;;;;;;5054475;28;20212;-73
2022/11/20 07:22:30;;;;;;;4.05;3.75;;;;;;;;;;5045181;28;20205;-74
2022/11/20 07:24:57;;;;;;;4.60;4.20;;;;;;;;;;5057066;28;20205;-74
2022/11/20 07:27:24;;;;;;;4.45;4.05;;;;;;;;;;5048556;28;20198;-73
2022/11/20 07:29:52;;;;;;;4.68;4.28;;;;;;;;;;5039133;28;20201;-74
2022/11/20 07:32:19;;;;;;;4.18;3.78;;;;;;;;;;5043862;28;20202;-74
2022/11/20 07:34:46;;;;;;;4.53;4.13;;;;;;;;;;5038706;28;20213;-73
2022/11/20 07:37:15;;;;;;;4.10;3.80;;;;;;;;;;5058346;28;20288;-73
2022/11/20 07:39:43;;;;;;;4.00;3.70;;;;;;;;;;5049949;28;20208;-73
2022/11/20 07:42:11;;;;;;;4.05;3.75;;;;;;;;;;5045768;28;20213;-74
2022/11/20 07:44:39;;;;;;;4.10;3.70;;;;;;;;;;5039792;28;20201;-73
2022/11/20 07:47:06;;;;;;;4.35;4.05;;;;;;;;;;5048890;28;20200;-73
2022/11/20 07:49:34;;;;;;;4.40;4.00;;;;;;;;;;5040569;28;20236;-73
2022/11/20 07:52:01;;;;;;;4.57;4.18;;;;;;;;;;5040277;28;20482;-74
2022/11/20 07:54:30;;;;;;;4.40;4.00;;;;;;;;;;5049358;28;20497;-73
2022/11/20 07:56:57;;;;;;;4.50;4.10;;;;;;;;;;5042108;28;20212;-73
2022/11/20 07:59:25;;;;;;;4.05;3.72;;;;;;;;;;5050080;28;20229;-73
2022/11/20 08:01:52;;;;;;;4.30;3.90;;;;;;;;;;5050792;28;20579;-73
2022/11/20 08:04:19;;;;;;;4.45;4.05;;;;;;;;;;5046016;28;20629;-75
2022/11/20 08:06:47;;;;;;;4.50;4.10;;;;;;;;;;5042022;28;20201;-74
2022/11/20 08:09:14;;;;;;;4.50;4.10;;;;;;;;;;5041682;28;20236;-73
2022/11/20 08:14:28;;;;;;;4.38;3.97;;;;;;;;;;5041942;28;20212;-73
2022/11/20 08:16:56;;;;;;;4.50;4.05;;;;;;;;;;5040592;28;20247;-72
2022/11/20 08:19:23;;;;;;;5.07;4.57;;;;;;;;;;5044322;28;20575;-72
2022/11/20 08:21:50;;;;;;;4.60;4.20;;;;;;;;;;5048137;28;20198;-72
2022/11/20 08:24:18;;;;;;;4.78;3.95;;;;;;;;;;5050843;28;20201;-73
2022/11/20 08:26:47;;;;;;;4.40;4.00;;;;;;;;;;5038351;28;20198;-73
2022/11/20 08:29:14;;;;;;;4.45;4.05;;;;;;;;;;5050769;28;20526;-72
2022/11/20 08:31:41;;;;;;;4.95;3.65;;;;;;;;;;5041629;28;20201;-72
2022/11/20 08:34:09;;;;;;;4.00;3.70;;;;;;;;;;5052221;28;20512;-72
2022/11/20 08:36:36;;;;;;;4.22;3.72;;;;;;;;;;5048200;28;20598;-73
2022/11/20 08:39:04;;;;;;;4.30;3.90;;;;;;;;;;5039354;28;20216;-73
2022/11/20 08:41:32;;;;;;;4.03;3.72;;;;;;;;;;5038810;28;20205;-72
2022/11/20 08:44:02;;;;;;;5.35;4.30;;;;;;;;;;5035895;28;20228;-72
2022/11/20 08:46:34;;;;;;;3.85;3.53;;;;;;;;;;5038108;28;20201;-72
2022/11/20 08:49:01;;;;;;;4.35;3.95;;;;;;;;;;5050331;28;20664;-72
2022/11/20 08:51:28;;;;;;;4.45;4.05;;;;;;;;;;5053338;28;20208;-72
2022/11/20 08:53:56;;;;;;;4.63;4.10;;;;;;;;;;5036880;28;20213;-72
2022/11/20 08:56:24;;;;;;;4.57;4.18;;;;;;;;;;5041139;28;20202;-73
2022/11/20 08:58:52;;;;;;;4.68;4.28;;;;;;;;;;5050824;28;20193;-73
2022/11/20 09:01:22;;;;;;;4.20;3.80;;;;;;;;;;5037623;28;20201;-72
2022/11/20 09:03:50;;;;;;;4.25;3.88;;;;;;;;;;5040011;28;20283;-72
2022/11/20 09:06:17;;;;;;;4.53;4.13;;;;;;;;;;5049286;28;20198;-73
2022/11/20 09:08:45;;;;;;;4.90;4.40;;;;;;;;;;5048867;28;20225;-72
2022/11/20 09:11:13;;;;;;;4.45;4.05;;;;;;;;;;5041958;28;20212;-72
2022/11/20 09:13:40;;;;;;;4.25;3.85;;;;;;;;;;5045314;28;20201;-72
2022/11/20 09:16:09;;;;;;;4.38;3.97;;;;;;;;;;5044179;28;20594;-72
2022/11/20 09:18:38;;;;;;;4.53;4.13;;;;;;;;;;5042235;28;20197;-72
2022/11/20 09:21:06;;;;;;;4.35;3.95;;;;;;;;;;5039459;28;20198;-72
2022/11/20 09:23:34;;;;;;;4.63;4.22;;;;;;;;;;5045763;28;20202;-72
2022/11/20 09:26:03;;;;;;;4.55;4.15;;;;;;;;;;5046637;28;20607;-72
2022/11/20 09:28:31;;;;;;;3.83;3.53;;;;;;;;;;5049274;28;20217;-73
2022/11/20 09:30:58;;;;;;;4.40;4.00;;;;;;;;;;5053701;28;20201;-72
2022/11/20 09:33:26;;;;;;;4.53;4.13;;;;;;;;;;5039688;28;20455;-72
2022/11/20 09:35:55;;;;;;;4.45;4.05;;;;;;;;;;5045655;28;20209;-72
2022/11/20 09:38:22;;;;;;;5.15;4.65;;;;;;;;;;5037597;28;20501;-73
2022/11/20 09:40:53;;;;;;;4.88;4.40;;;;;;;;;;5054855;28;20193;-72
2022/11/20 09:43:23;;;;;;;4.85;4.35;;;;;;;;;;5053410;28;20227;-72
2022/11/20 09:45:58;;;;;;;4.65;4.25;;;;;;;;;;5039793;28;20193;-72
2022/11/20 09:48:35;;;;;;;4.80;4.40;;;;;;;;;;5039064;28;20637;-72
2022/11/20 09:51:08;;;;;;;4.82;4.32;;;;;;;;;;5047773;28;20236;-72
2022/11/20 09:53:42;;;;;;;4.70;4.30;;;;;;;;;;5046778;28;20198;-72
2022/11/20 09:56:10;;;;;;;5.60;4.80;;;;;;;;;;5048561;28;20209;-73
2022/11/20 09:58:42;;;;;;;4.47;4.07;;;;;;;;;;5055480;28;20198;-72
2022/11/20 10:01:12;;;;;;;4.80;4.30;;;;;;;;;;5023438;28;20209;-72
2022/11/20 10:03:45;;;;;;;5.53;5.03;;;;;;;;;;5039517;28;20216;-72
2022/11/20 10:06:18;;;;;;;4.93;4.53;;;;;;;;;;5029478;28;20281;-72
2022/11/20 10:08:49;;;;;;;5.70;5.20;;;;;;;;;;5038842;28;20225;-72
2022/11/20 10:11:19;;;;;;;5.60;5.10;;;;;;;;;;5034474;28;20206;-72
2022/11/20 10:13:52;;;;;;;5.68;5.18;;;;;;;;;;5028246;28;20198;-72
2022/11/20 10:16:26;;;;;;;7.15;5.20;;;;;;;;;;5019552;28;20599;-72
2022/11/20 10:18:57;;;;;;;5.30;4.80;;;;;;;;;;5021033;28;20607;-72
2022/11/20 10:21:33;;;;;;;6.68;4.68;;;;;;;;;;5019939;28;20614;-72
2022/11/20 10:24:12;;;;;;;7.00;5.20;;;;;;;;;;5019751;28;20212;-72
2022/11/20 10:26:44;;;;;;;7.88;5.22;;;;;;;;;;5019460;28;20213;-72
2022/11/20 10:29:13;;;;;;;7.97;5.15;;;;;;;;;;5019748;28;20237;-72
2022/11/20 10:31:42;;;;;;;5.65;5.07;;;;;;;;;;5018854;28;20206;-72
2022/11/20 10:34:16;;;;;;;5.63;5.13;;;;;;;;;;5035234;28;20232;-73
2022/11/20 10:36:46;;;;;;;6.57;5.30;;;;;;;;;;5038774;28;20202;-72
2022/11/20 10:39:18;;;;;;;5.70;4.90;;;;;;;;;;5039068;28;20209;-73
2022/11/20 10:41:48;;;;;;;7.38;4.90;;;;;;;;;;5038946;28;20197;-73
2022/11/20 10:45:00;;;;;;;5.78;4.93;;;;;;;;;;5021111;28;20203;-73
2022/11/20 10:47:05;;;;;;;7.32;5.35;;;;;;;;;;5018973;28;20207;-73
2022/11/20 10:49:32;;;;;;;5.90;4.78;;;;;;;;;;5019013;28;20631;-72
2022/11/20 10:52:05;;;;;;;5.80;5.25;;;;;;;;;;5019077;28;20281;-73
2022/11/20 10:54:36;;;;;;;5.55;4.70;;;;;;;;;;5019168;28;20194;-73
2022/11/20 10:57:07;;;;;;;5.13;4.63;;;;;;;;;;5018274;28;20206;-72
2022/11/20 10:59:40;;;;;;;6.35;4.63;;;;;;;;;;5025713;28;20234;-72
2022/11/20 11:02:21;;;;;;;6.28;4.75;;;;;;;;;;5038868;28;20456;-73
2022/11/20 11:04:49;;;;;;;5.82;5.13;;;;;;;;;;5038237;28;20204;-73
2022/11/20 11:07:19;;;;;;;5.63;5.13;;;;;;;;;;5036929;28;20206;-72
2022/11/20 11:09:49;;;;;;;6.05;5.00;;;;;;;;;;5038168;28;20226;-72
2022/11/20 11:12:16;;;;;;;5.07;4.63;;;;;;;;;;5037739;28;20263;-73
2022/11/20 11:14:48;;;;;;;5.43;4.53;;;;;;;;;;5058171;28;20205;-73
2022/11/20 11:17:23;;;;;;;4.95;4.45;;;;;;;;;;5057466;28;20201;-73
2022/11/20 11:20:00;;;;;;;5.10;4.40;;;;;;;;;;5057618;28;20219;-73
2022/11/20 11:22:29;;;;;;;5.45;4.95;;;;;;;;;;5055589;28;20213;-73
2022/11/20 11:24:57;;;;;;;10.65;9.65;;;;;;;;;;5038488;28;20216;-73
2022/11/20 11:27:24;;;;;;;24.42;20.75;;;;;;;;;;5037778;28;20228;-73
2022/11/20 11:29:51;;;;;;;17.40;15.57;;;;;;;;;;5037778;28;20623;-73
2022/11/20 11:32:20;;;;;;;16.48;14.77;;;;;;;;;;5037670;28;20206;-73
2022/11/20 11:34:59;;;;;;;16.55;14.93;;;;;;;;;;5057593;28;20301;-73
2022/11/20 11:37:29;;;;;;;34.20;30.80;;;;;;;;;;5057527;28;20216;-73
2022/11/20 11:39:56;;;;;;;30.58;27.42;;;;;;;;;;5057610;28;20211;-73
2022/11/20 11:42:24;;;;;;;29.58;26.35;;;;;;;;;;5056291;28;20207;-73
2022/11/20 11:45:05;;;;;;;26.85;23.98;;;;;;;;;;5037268;28;20584;-73
2022/11/20 11:47:34;;;;;;;25.58;23.08;;;;;;;;;;5036691;28;20201;-73
2022/11/20 11:50:15;;;;;;;25.88;23.17;;;;;;;;;;5037293;28;20614;-73
2022/11/20 11:52:46;;;;;;;24.17;21.67;;;;;;;;;;5039440;28;20468;-73
2022/11/20 11:55:16;;;;;;;23.40;21.10;;;;;;;;;;5057168;28;20201;-72
2022/11/20 11:57:48;;;;;;;22.75;20.40;;;;;;;;;;5056800;28;20262;-73
2022/11/20 12:00:17;;;;;;;22.20;19.90;;;;;;;;;;5056578;28;20239;-73
2022/11/20 12:02:50;;;;;;;21.73;19.42;;;;;;;;;;5053028;28;20206;-72
2022/11/20 12:05:20;;;;;;;20.40;18.30;;;;;;;;;;5035581;28;20230;-73
2022/11/20 12:07:52;;;;;;;25.25;22.42;;;;;;;;;;5036358;28;20301;-72
2022/11/20 12:10:22;;;;;;;55.85;42.85;;;;;;;;;;5036907;28;20580;-72
2022/11/20 12:12:54;;;;;;;44.97;35.88;;;;;;;;;;5038339;28;20263;-73
2022/11/20 12:15:27;;;;;;;42.58;34.47;;;;;;;;;;5056707;28;20274;-73
2022/11/20 12:17:55;;;;;;;46.53;37.95;;;;;;;;;;5056196;28;20205;-73
2022/11/20 12:20:24;;;;;;;45.60;38.45;;;;;;;;;;5056511;28;20201;-73
2022/11/20 12:22:56;;;;;;;42.60;34.30;;;;;;;;;;5053480;28;20220;-73
2022/11/20 12:25:26;;;;;;;46.55;39.25;;;;;;;;;;5035866;28;20202;-73
2022/11/20 12:27:59;;;;;;;46.20;37.75;;;;;;;;;;5036750;28;20205;-73
2022/11/20 12:30:27;;;;;;;41.53;36.55;;;;;;;;;;5036504;28;20688;-70
2022/11/20 12:33:22;;;;;;;49.65;44.45;;;;;;;;;;5039666;28;20192;-70
2022/11/20 12:35:57;;;;;;;44.17;39.47;;;;;;;;;;5056665;28;20207;-71
2022/11/20 12:38:45;;;;;;;40.75;36.35;;;;;;;;;;5056647;28;20211;-72
2022/11/20 12:45:08;;;;;;;38.85;34.75;;;;;;;;;;5056507;28;20212;-72
2022/11/20 12:47:00;;;;;;;33.97;30.58;;;;;;;;;;5036130;28;20216;-72
2022/11/20 12:49:33;;;;;;;33.95;30.02;;;;;;;;;;5035022;28;20240;-72
2022/11/20 12:52:08;;;;;;;46.88;42.78;;;;;;;;;;5036233;28;20583;-72
2022/11/20 12:54:50;;;;;;;42.83;38.95;;;;;;;;;;5052278;28;20196;-72
2022/11/20 12:57:20;;;;;;;39.97;36.45;;;;;;;;;;5056833;28;20212;-71
2022/11/20 12:59:56;;;;;;;38.13;34.72;;;;;;;;;;5055712;28;20343;-72
2022/11/20 13:02:27;;;;;;;36.47;33.17;;;;;;;;;;5053276;28;20211;-72
2022/11/20 13:05:01;;;;;;;35.10;31.90;;;;;;;;;;5050982;28;20193;-71
2022/11/20 13:07:29;;;;;;;32.92;30.00;;;;;;;;;;5035371;28;20201;-72
2022/11/20 13:09:58;;;;;;;31.77;28.98;;;;;;;;;;5035804;28;20310;-73
2022/11/20 13:12:27;;;;;;;31.45;28.75;;;;;;;;;;5046240;28;20547;-72
2022/11/20 13:14:57;;;;;;;29.33;26.90;;;;;;;;;;5054526;28;20201;-71
2022/11/20 13:17:26;;;;;;;27.00;24.70;;;;;;;;;;5056311;28;20205;-72
2022/11/20 13:19:55;;;;;;;26.95;24.60;;;;;;;;;;5055574;28;20232;-72
2022/11/20 13:22:26;;;;;;;25.50;23.33;;;;;;;;;;5055253;28;20209;-71
2022/11/20 13:24:53;;;;;;;24.30;22.10;;;;;;;;;;5037022;28;20252;-71
2022/11/20 13:27:24;;;;;;;23.13;21.23;;;;;;;;;;5035335;28;20202;-72
2022/11/20 13:30:03;;;;;;;22.17;20.38;;;;;;;;;;5039894;28;20216;-71
2022/11/20 13:32:32;;;;;;;20.33;18.70;;;;;;;;;;5054876;28;20278;-71
2022/11/20 13:35:01;;;;;;;20.00;18.40;;;;;;;;;;5055390;28;20235;-71
2022/11/20 13:37:30;;;;;;;17.98;16.58;;;;;;;;;;5055452;28;20216;-71
2022/11/20 13:40:07;;;;;;;18.30;16.80;;;;;;;;;;5053521;28;20297;-71
2022/11/20 13:42:37;;;;;;;17.05;15.65;;;;;;;;;;5034418;28;20208;-72
2022/11/20 13:45:10;;;;;;;15.60;14.38;;;;;;;;;;5034930;28;20309;-71
2022/11/20 13:47:38;;;;;;;14.43;13.23;;;;;;;;;;5035076;28;20206;-71
2022/11/20 13:50:06;;;;;;;14.40;13.30;;;;;;;;;;5036976;28;20323;-72
2022/11/20 13:52:41;;;;;;;13.70;12.50;;;;;;;;;;5054683;28;20586;-71
2022/11/20 13:55:14;;;;;;;12.32;11.35;;;;;;;;;;5054367;28;20197;-71
2022/11/20 13:57:51;;;;;;;11.75;10.82;;;;;;;;;;5055008;28;20422;-72
2022/11/20 14:00:20;;;;;;;11.32;10.43;;;;;;;;;;5053269;28;20225;-72
2022/11/20 14:02:51;;;;;;;10.63;9.82;;;;;;;;;;5055082;28;20327;-71
2022/11/20 14:05:21;;;;;;;10.38;9.52;;;;;;;;;;5054099;28;20205;-72
2022/11/20 14:07:49;;;;;;;9.88;9.07;;;;;;;;;;5053816;28;20216;-72
2022/11/20 14:10:24;;;;;;;10.93;10.02;;;;;;;;;;5034937;28;20643;-71
2022/11/20 14:12:52;;;;;;;10.88;9.98;;;;;;;;;;5034609;28;20219;-70
2022/11/20 14:15:28;;;;;;;9.98;9.18;;;;;;;;;;5034759;28;20206;-70
2022/11/20 14:17:55;;;;;;;10.13;9.18;;;;;;;;;;5036355;28;20307;-72
2022/11/20 14:20:25;;;;;;;9.02;8.32;;;;;;;;;;5055032;28;20208;-72
2022/11/20 14:22:53;;;;;;;8.23;7.43;;;;;;;;;;5054372;28;20205;-72
2022/11/20 14:25:23;;;;;;;9.05;8.32;;;;;;;;;;5054136;28;20301;-72
2022/11/20 14:27:54;;;;;;;8.02;7.43;;;;;;;;;;5054011;28;20231;-72
2022/11/20 14:30:23;;;;;;;7.82;7.22;;;;;;;;;;5034138;28;20634;-71
2022/11/20 14:32:51;;;;;;;7.40;6.80;;;;;;;;;;5034678;28;20205;-70
2022/11/20 14:35:21;;;;;;;7.28;6.68;;;;;;;;;;5035204;28;20206;-71
2022/11/20 14:37:49;;;;;;;7.40;6.80;;;;;;;;;;5043273;28;20194;-71
2022/11/20 14:40:27;;;;;;;7.00;6.32;;;;;;;;;;5054503;28;20502;-71
2022/11/20 14:42:55;;;;;;;7.00;6.40;;;;;;;;;;5058247;28;20205;-72
2022/11/20 14:45:23;;;;;;;6.35;5.85;;;;;;;;;;5057966;28;20201;-72
2022/11/20 14:47:51;;;;;;;6.25;5.75;;;;;;;;;;5044351;28;20201;-72
2022/11/20 14:50:20;;;;;;;6.07;5.50;;;;;;;;;;5038661;28;20225;-71
2022/11/20 14:52:52;;;;;;;6.28;5.85;;;;;;;;;;5038618;28;20197;-70
2022/11/20 14:55:27;;;;;;;5.93;5.45;;;;;;;;;;5038600;28;20206;-72
2022/11/20 14:57:58;;;;;;;5.70;5.30;;;;;;;;;;5038924;28;20205;-70
2022/11/20 15:00:26;;;;;;;5.70;5.20;;;;;;;;;;5038178;28;20248;-72